Terminal Aerodrome Forecast
Issued by NWS Tampa Bay Area, FL

Home | Current Version | Previous Version | Text Only | Print | Product List | Glossary On
Versions: 1 2 3 4 5 6 7 8 9 10 11 12 13 14 15 16 17
000
FTUS42 KTBW 042354
TAFSRQ
TAF
KSRQ 042354Z 0500/0524 25006KT P6SM FEW040 SCT250
     FM050200 VRB04KT P6SM FEW025 SCT250
     FM051400 VRB05KT P6SM SCT025 SCT100
     FM051700 26008KT P6SM SCT035 SCT200=

USA.gov is the U.S. government's official web portal to all federal, state and local government web resources and services.